createdAt,value
2022-11-04T00:02:15.000Z,20.00
2022-11-04T00:04:42.808Z,20.01
2022-11-04T00:07:30.651Z,19.90
2022-11-04T00:09:58.276Z,19.90
2022-11-04T00:12:26.927Z,19.96
2022-11-04T00:15:15.099Z,19.91
2022-11-04T00:17:42.662Z,19.95
2022-11-04T00:20:29.336Z,19.89
2022-11-04T00:23:15.873Z,19.90
2022-11-04T00:26:01.829Z,19.92
2022-11-04T00:28:44.914Z,19.90
2022-11-04T00:31:30.854Z,19.91
2022-11-04T00:34:00.022Z,19.90
2022-11-04T00:36:30.747Z,19.88
2022-11-04T00:39:00.259Z,19.83
2022-11-04T00:41:29.195Z,19.82
2022-11-04T00:44:00.984Z,19.84
2022-11-04T00:46:32.064Z,19.78
2022-11-04T00:49:08.449Z,19.77
2022-11-04T00:51:36.512Z,19.73
2022-11-04T00:54:04.714Z,19.75
2022-11-04T00:56:32.638Z,19.77
2022-11-04T00:59:00.926Z,19.76
2022-11-04T01:01:29.408Z,19.67
2022-11-04T01:03:58.352Z,19.72
2022-11-04T01:06:27.608Z,19.67
2022-11-04T01:09:04.538Z,19.67
2022-11-04T01:11:32.628Z,19.66
2022-11-04T01:14:00.719Z,19.63
2022-11-04T01:16:29.731Z,19.57
2022-11-04T01:18:58.675Z,19.57
2022-11-04T01:21:27.022Z,19.52
2022-11-04T01:23:54.870Z,19.49
2022-11-04T01:26:25.205Z,19.50
2022-11-04T01:28:55.273Z,19.44
2022-11-04T01:31:28.452Z,19.40
2022-11-04T01:34:00.851Z,19.38
2022-11-04T01:36:29.031Z,19.25
2022-11-04T01:38:57.946Z,19.14
2022-11-04T01:41:29.447Z,19.14
2022-11-04T01:44:03.052Z,19.03
2022-11-04T01:46:44.675Z,19.09
2022-11-04T01:49:40.664Z,19.10
2022-11-04T01:52:24.986Z,19.10
2022-11-04T01:54:55.496Z,19.09
2022-11-04T01:57:35.325Z,19.07
2022-11-04T02:00:07.347Z,19.05
2022-11-04T02:02:58.050Z,18.99
2022-11-04T02:05:25.659Z,18.98
2022-11-04T02:07:58.315Z,18.96
2022-11-04T02:10:29.591Z,18.94
2022-11-04T02:13:01.466Z,18.89
2022-11-04T02:15:44.453Z,18.80
2022-11-04T02:18:30.406Z,18.68
2022-11-04T02:21:10.503Z,18.64
2022-11-04T02:24:10.730Z,18.38
2022-11-04T02:27:15.579Z,18.41
2022-11-04T02:30:15.009Z,18.44
2022-11-04T02:33:00.774Z,18.40
2022-11-04T02:35:40.313Z,18.37
2022-11-04T02:38:31.433Z,18.35
2022-11-04T02:41:14.630Z,18.30
2022-11-04T02:44:19.667Z,18.27
2022-11-04T02:47:11.828Z,18.11
2022-11-04T02:50:02.912Z,18.14
2022-11-04T02:53:11.804Z,18.04
2022-11-04T02:55:47.673Z,17.87
2022-11-04T02:58:39.087Z,17.93
2022-11-04T03:01:11.252Z,17.91
2022-11-04T03:03:49.301Z,17.85
2022-11-04T03:06:22.640Z,17.78
2022-11-04T03:08:53.217Z,17.74
2022-11-04T03:11:24.754Z,17.70
2022-11-04T03:14:13.128Z,17.64
2022-11-04T03:16:47.855Z,17.64
2022-11-04T03:19:43.869Z,17.54
2022-11-04T03:22:23.473Z,17.59
2022-11-04T03:24:54.045Z,17.58
2022-11-04T03:27:26.303Z,17.64
2022-11-04T03:30:06.503Z,17.58
2022-11-04T03:32:55.293Z,17.60
2022-11-04T03:35:24.560Z,17.60
2022-11-04T03:37:53.149Z,17.66
2022-11-04T03:40:25.788Z,17.64
2022-11-04T03:43:10.682Z,17.66
2022-11-04T03:45:39.906Z,17.59
2022-11-04T03:48:08.938Z,17.62
2022-11-04T03:50:49.025Z,17.53
2022-11-04T03:53:23.924Z,17.59
2022-11-04T03:56:10.535Z,17.51
2022-11-04T03:59:05.159Z,17.56
2022-11-04T04:01:49.587Z,17.53
2022-11-04T04:04:22.004Z,17.52
2022-11-04T04:06:55.287Z,17.55
2022-11-04T04:09:39.285Z,17.56
2022-11-04T04:12:13.914Z,17.44
2022-11-04T04:14:47.761Z,17.33
2022-11-04T04:17:24.799Z,17.30
2022-11-04T04:20:16.537Z,17.33
2022-11-04T04:22:50.940Z,17.28
2022-11-04T04:25:41.666Z,17.27
2022-11-04T04:28:11.998Z,17.33
2022-11-04T04:30:43.060Z,17.35
2022-11-04T04:33:21.655Z,17.16
2022-11-04T04:35:57.323Z,16.98
2022-11-04T04:38:47.843Z,16.97
2022-11-04T04:41:37.921Z,16.75
2022-11-04T04:44:37.906Z,16.71
2022-11-04T04:47:07.550Z,16.74
2022-11-04T04:49:35.850Z,16.68
2022-11-04T04:52:08.181Z,16.60
2022-11-04T04:54:35.991Z,16.69
2022-11-04T04:57:04.620Z,16.79
2022-11-04T04:59:32.851Z,16.73
2022-11-04T05:02:01.258Z,16.74
2022-11-04T05:04:29.152Z,16.70
2022-11-04T05:06:57.436Z,16.65
2022-11-04T05:09:26.759Z,16.59
2022-11-04T05:11:55.086Z,16.60
2022-11-04T05:14:23.248Z,16.50
2022-11-04T05:16:50.797Z,16.41
2022-11-04T05:19:18.903Z,16.39
2022-11-04T05:21:46.870Z,16.43
2022-11-04T05:24:14.859Z,16.41
2022-11-04T05:26:42.915Z,16.42
2022-11-04T05:29:10.992Z,16.35
2022-11-04T05:31:39.555Z,16.41
2022-11-04T05:34:07.374Z,16.34
2022-11-04T05:36:35.482Z,16.20
2022-11-04T05:39:04.380Z,16.20
2022-11-04T05:41:32.795Z,16.26
2022-11-04T05:44:03.197Z,16.20
2022-11-04T05:46:31.803Z,16.21
2022-11-04T05:48:59.434Z,16.21
2022-11-04T05:51:28.855Z,16.19
2022-11-04T05:53:56.611Z,16.21
2022-11-04T05:56:24.905Z,16.10
2022-11-04T05:58:56.667Z,16.07
2022-11-04T06:01:29.324Z,16.09
2022-11-04T06:03:58.526Z,16.07
2022-11-04T06:06:29.358Z,15.96
2022-11-04T06:08:57.773Z,16.02
2022-11-04T06:11:27.377Z,15.94
2022-11-04T06:13:57.504Z,15.86
2022-11-04T06:16:26.472Z,15.87
2022-11-04T06:18:54.435Z,15.90
2022-11-04T06:21:31.934Z,15.92
2022-11-04T06:24:01.455Z,15.91
2022-11-04T06:26:31.804Z,15.87
2022-11-04T06:29:00.154Z,15.87
2022-11-04T06:31:28.036Z,15.90
2022-11-04T06:33:55.807Z,15.77
2022-11-04T06:36:23.799Z,15.77
2022-11-04T06:38:52.220Z,15.82
2022-11-04T06:41:20.375Z,15.94
2022-11-04T06:43:48.179Z,16.03
2022-11-04T06:46:35.127Z,16.09
2022-11-04T06:49:04.359Z,16.03
2022-11-04T06:51:33.409Z,15.93
2022-11-04T06:54:02.006Z,16.05
2022-11-04T06:56:30.170Z,16.15
2022-11-04T06:58:58.836Z,16.25
2022-11-04T07:01:29.833Z,16.07
2022-11-04T07:04:00.290Z,16.26
2022-11-04T07:06:29.786Z,16.39
2022-11-04T07:09:02.694Z,16.33
2022-11-04T07:11:32.485Z,16.37
2022-11-04T07:14:09.111Z,16.41
2022-11-04T07:16:42.301Z,16.48
2022-11-04T07:19:10.202Z,16.43
2022-11-04T07:21:37.916Z,16.37
2022-11-04T07:24:06.244Z,16.43
2022-11-04T07:26:33.868Z,16.44
2022-11-04T07:29:01.599Z,16.47
2022-11-04T07:31:38.274Z,16.12
2022-11-04T07:34:06.554Z,16.10
2022-11-04T07:36:38.426Z,16.20
2022-11-04T07:39:07.714Z,16.03
2022-11-04T07:41:35.309Z,16.16
2022-11-04T07:44:05.926Z,16.44
2022-11-04T07:46:33.975Z,16.67
2022-11-04T07:49:02.268Z,16.82
2022-11-04T07:51:32.763Z,16.76
2022-11-04T07:54:01.566Z,16.96
2022-11-04T07:56:29.192Z,16.91
2022-11-04T07:58:57.102Z,16.82
2022-11-04T08:01:25.464Z,17.15
2022-11-04T08:03:53.860Z,16.95
2022-11-04T08:06:22.610Z,17.23
2022-11-04T08:08:54.324Z,17.21
2022-11-04T08:11:28.717Z,17.34
2022-11-04T08:13:57.164Z,17.66
2022-11-04T08:16:28.809Z,17.67
2022-11-04T08:19:02.885Z,17.93
2022-11-04T08:21:32.411Z,18.06
2022-11-04T08:24:00.199Z,17.77
2022-11-04T08:26:28.155Z,17.83
2022-11-04T08:28:56.952Z,18.04
2022-11-04T08:31:30.379Z,17.92
2022-11-04T08:33:58.122Z,17.90
2022-11-04T08:36:28.777Z,18.18
2022-11-04T08:39:24.202Z,17.69
2022-11-04T08:41:53.798Z,17.41
2022-11-04T08:44:21.585Z,17.85
2022-11-04T08:46:49.421Z,17.70
2022-11-04T08:49:20.983Z,17.83
2022-11-04T08:51:58.429Z,17.86
2022-11-04T08:54:38.216Z,18.11
2022-11-04T08:57:06.581Z,18.38
2022-11-04T08:59:43.319Z,18.43
2022-11-04T09:02:18.624Z,18.25
2022-11-04T09:04:50.919Z,18.26
2022-11-04T09:07:19.099Z,18.35
2022-11-04T09:09:49.674Z,18.34
2022-11-04T09:12:17.243Z,18.50
2022-11-04T09:14:45.293Z,18.68
2022-11-04T09:17:13.955Z,18.73
2022-11-04T09:19:42.016Z,18.54
2022-11-04T09:22:10.222Z,18.49
2022-11-04T09:24:38.317Z,18.62
2022-11-04T09:27:07.509Z,18.86
2022-11-04T09:29:36.927Z,19.11
2022-11-04T09:32:05.303Z,19.16
2022-11-04T09:34:33.263Z,19.28
2022-11-04T09:37:01.346Z,19.17
2022-11-04T09:39:29.202Z,18.98
2022-11-04T09:42:02.592Z,19.09
2022-11-04T09:45:14.972Z,18.74
2022-11-04T09:47:34.995Z,18.81
2022-11-04T09:50:04.402Z,18.71
2022-11-04T09:52:39.707Z,18.71
2022-11-04T09:55:17.454Z,18.94
2022-11-04T09:57:55.399Z,18.87
2022-11-04T10:00:23.878Z,19.04
2022-11-04T10:03:03.410Z,18.83
2022-11-04T10:05:54.275Z,18.89
2022-11-04T10:08:43.872Z,18.82
2022-11-04T10:11:39.061Z,18.62
2022-11-04T10:14:14.005Z,18.41
2022-11-04T10:16:51.027Z,18.44
2022-11-04T10:19:37.406Z,18.49
2022-11-04T10:22:33.384Z,18.78
2022-11-04T10:25:23.630Z,19.00
2022-11-04T10:27:53.122Z,19.11
2022-11-04T10:30:27.115Z,19.35
2022-11-04T10:33:17.394Z,19.46
2022-11-04T10:35:48.088Z,19.37
2022-11-04T10:38:19.506Z,19.30
2022-11-04T10:40:59.652Z,19.11
2022-11-04T10:43:38.563Z,19.26
2022-11-04T10:46:37.168Z,19.13
2022-11-04T10:49:37.554Z,19.24
2022-11-04T10:52:09.420Z,19.19
2022-11-04T10:54:55.454Z,19.17
2022-11-04T10:57:26.185Z,19.34
2022-11-04T10:59:59.047Z,19.49
2022-11-04T11:02:47.979Z,19.55
2022-11-04T11:05:18.152Z,19.29
2022-11-04T11:07:54.449Z,19.40
2022-11-04T11:10:23.587Z,19.48
2022-11-04T11:12:57.553Z,19.36
2022-11-04T11:15:25.711Z,19.45
2022-11-04T11:18:08.709Z,19.72
2022-11-04T11:20:38.259Z,19.50
2022-11-04T11:23:10.383Z,19.56
2022-11-04T11:25:45.502Z,19.34
2022-11-04T11:28:25.421Z,19.44
2022-11-04T11:31:04.350Z,19.33
2022-11-04T11:33:34.919Z,19.59
2022-11-04T11:36:13.352Z,19.64
2022-11-04T11:38:55.476Z,19.82
2022-11-04T11:41:29.089Z,19.89
2022-11-04T11:43:59.008Z,19.88
2022-11-04T11:46:30.168Z,19.80
2022-11-04T11:49:01.647Z,19.94
2022-11-04T11:51:38.399Z,19.92
2022-11-04T11:54:27.656Z,19.75
2022-11-04T11:57:13.838Z,19.60
2022-11-04T12:02:44.793Z,19.85
2022-11-04T12:11:23.097Z,20.24
2022-11-04T12:13:57.362Z,20.29
2022-11-04T12:16:58.988Z,20.49
2022-11-04T12:20:15.046Z,20.66
2022-11-04T12:23:21.988Z,20.79
2022-11-04T12:26:21.687Z,20.97
2022-11-04T12:29:13.310Z,20.94
2022-11-04T12:32:20.450Z,20.96
2022-11-04T12:35:37.675Z,21.03
2022-11-04T12:38:19.431Z,21.09
2022-11-04T12:41:37.548Z,21.15
2022-11-04T12:44:13.787Z,21.22
2022-11-04T12:47:08.276Z,21.16
2022-11-04T12:50:09.013Z,20.98
2022-11-04T12:52:55.064Z,21.18
2022-11-04T12:55:32.447Z,21.07
2022-11-04T12:58:20.600Z,21.15
2022-11-04T13:00:59.271Z,20.96
2022-11-04T13:03:41.562Z,20.97
2022-11-04T13:06:16.905Z,21.12
2022-11-04T13:08:53.477Z,21.25
2022-11-04T13:11:29.909Z,21.40
2022-11-04T13:14:02.123Z,21.40
2022-11-04T13:16:34.995Z,21.23
2022-11-04T13:19:18.618Z,21.25
2022-11-04T13:21:50.016Z,20.95
2022-11-04T13:24:48.084Z,21.15
2022-11-04T13:27:39.122Z,21.33
2022-11-04T13:30:07.481Z,20.88
2022-11-04T13:33:12.945Z,21.25
2022-11-04T13:36:00.496Z,21.43
2022-11-04T13:39:03.757Z,21.48
2022-11-04T13:42:08.476Z,21.47
2022-11-04T13:44:40.864Z,21.66
2022-11-04T13:47:21.770Z,21.73
2022-11-04T13:49:58.431Z,21.84
2022-11-04T13:52:31.933Z,21.86
2022-11-04T13:55:21.631Z,21.96
2022-11-04T13:58:06.445Z,21.96
2022-11-04T14:00:40.669Z,21.74
2022-11-04T14:03:26.715Z,21.68
2022-11-04T14:06:00.000Z,21.57
2022-11-04T14:08:27.886Z,21.47
2022-11-04T14:10:55.562Z,21.48
2022-11-04T14:13:32.915Z,21.57
2022-11-04T14:16:05.775Z,21.58
2022-11-04T14:18:40.808Z,21.54
2022-11-04T14:21:18.099Z,21.63
2022-11-04T14:23:53.743Z,21.67
2022-11-04T14:26:28.427Z,21.43
2022-11-04T14:29:26.440Z,21.62
2022-11-04T14:31:57.381Z,21.65
2022-11-04T14:34:34.205Z,21.74
2022-11-04T14:37:09.161Z,21.73
2022-11-04T14:39:41.066Z,21.82
2022-11-04T14:42:13.016Z,21.78
2022-11-04T14:44:50.198Z,21.71
2022-11-04T14:47:33.736Z,21.65
2022-11-04T14:50:09.009Z,21.60
2022-11-04T14:52:53.330Z,21.65
2022-11-04T14:55:25.946Z,21.60
2022-11-04T14:57:56.528Z,21.56
2022-11-04T15:00:35.970Z,21.53
2022-11-04T15:06:12.944Z,21.55
2022-11-04T15:08:49.758Z,21.43
2022-11-04T15:11:39.438Z,21.41
2022-11-04T15:14:25.339Z,21.37
2022-11-04T15:16:59.801Z,21.38
2022-11-04T15:19:35.944Z,21.14
2022-11-04T15:22:07.037Z,21.27
2022-11-04T15:24:36.877Z,21.17
2022-11-04T15:27:07.809Z,21.12
2022-11-04T15:29:40.188Z,21.14
2022-11-04T15:32:26.046Z,21.12
2022-11-04T15:34:55.974Z,21.12
2022-11-04T15:37:26.136Z,21.09
2022-11-04T15:40:02.701Z,21.10
2022-11-04T15:42:46.003Z,21.16
2022-11-04T15:45:23.606Z,21.06
2022-11-04T15:48:27.649Z,21.00
2022-11-04T15:51:28.007Z,20.82
2022-11-04T15:54:16.818Z,20.80
2022-11-04T15:56:55.749Z,20.76
2022-11-04T15:59:28.866Z,20.78
2022-11-04T16:01:56.830Z,20.75
2022-11-04T16:04:28.476Z,20.80
2022-11-04T16:07:10.323Z,20.79
2022-11-04T16:09:54.769Z,20.70
2022-11-04T16:12:37.782Z,20.59
2022-11-04T16:15:05.582Z,20.42
2022-11-04T16:17:34.460Z,20.39
2022-11-04T16:20:08.686Z,20.35
2022-11-04T16:22:39.834Z,20.22
2022-11-04T16:25:19.074Z,20.13
2022-11-04T16:27:46.896Z,20.07
2022-11-04T16:30:18.766Z,20.02
2022-11-04T16:32:51.824Z,19.93
2022-11-04T16:35:23.330Z,19.92
2022-11-04T16:37:59.557Z,19.79
2022-11-04T16:40:27.936Z,19.88
2022-11-04T16:42:58.348Z,19.79
2022-11-04T16:45:33.887Z,19.76
2022-11-04T16:48:09.117Z,19.65
2022-11-04T16:50:39.747Z,19.63
2022-11-04T16:53:08.196Z,19.64
2022-11-04T16:55:45.679Z,19.56
2022-11-04T16:58:18.368Z,19.51
2022-11-04T17:00:46.664Z,19.47
2022-11-04T17:03:25.693Z,19.48
2022-11-04T17:06:01.416Z,19.47
2022-11-04T17:08:31.034Z,19.46
2022-11-04T17:11:03.197Z,19.30
2022-11-04T17:13:37.041Z,19.35
2022-11-04T17:16:11.355Z,19.40
2022-11-04T17:18:41.617Z,19.35
2022-11-04T17:21:14.020Z,19.36
2022-11-04T17:23:42.385Z,19.41
2022-11-04T17:26:12.878Z,19.23
2022-11-04T17:28:40.485Z,19.14
2022-11-04T17:31:19.039Z,19.11
2022-11-04T17:33:47.288Z,19.06
2022-11-04T17:36:20.581Z,19.17
2022-11-04T17:38:49.032Z,19.12
2022-11-04T17:41:35.948Z,19.08
2022-11-04T17:44:05.813Z,18.99
2022-11-04T17:46:39.604Z,19.01
2022-11-04T17:49:17.727Z,19.02
2022-11-04T17:51:50.027Z,19.01
2022-11-04T17:54:22.965Z,18.99
2022-11-04T17:56:51.241Z,19.00
2022-11-04T17:59:22.213Z,18.90
2022-11-04T18:01:51.610Z,18.83
2022-11-04T18:04:24.258Z,18.70
2022-11-04T18:06:52.069Z,18.71
2022-11-04T18:09:20.034Z,18.81
2022-11-04T18:12:07.016Z,18.75
2022-11-04T18:14:38.422Z,18.78
2022-11-04T18:17:11.090Z,18.71
2022-11-04T18:19:39.861Z,18.72
2022-11-04T18:22:08.911Z,18.59
2022-11-04T18:24:36.976Z,18.65
2022-11-04T18:27:04.729Z,18.58
2022-11-04T18:29:32.571Z,18.59
2022-11-04T18:32:01.619Z,18.56
2022-11-04T18:34:29.089Z,18.61
2022-11-04T18:37:06.259Z,18.63
2022-11-04T18:39:42.916Z,18.69
2022-11-04T18:42:14.046Z,18.69
2022-11-04T18:44:45.566Z,18.55
2022-11-04T18:47:14.207Z,18.54
2022-11-04T18:49:47.912Z,18.42
2022-11-04T18:52:15.917Z,18.51
2022-11-04T18:54:44.829Z,18.45
2022-11-04T18:57:13.351Z,18.40
2022-11-04T18:59:41.273Z,18.37
2022-11-04T19:02:22.097Z,18.31
2022-11-04T19:04:51.205Z,18.18
2022-11-04T19:07:28.572Z,18.24
2022-11-04T19:09:56.792Z,18.29
2022-11-04T19:12:42.796Z,18.36
2022-11-04T19:15:11.072Z,18.36
2022-11-04T19:17:39.347Z,18.32
2022-11-04T19:20:30.076Z,18.28
2022-11-04T19:22:59.855Z,18.27
2022-11-04T19:25:27.898Z,18.14
2022-11-04T19:28:31.451Z,18.09
2022-11-04T19:31:01.191Z,18.11
2022-11-04T19:33:30.997Z,18.13
2022-11-04T19:36:00.581Z,18.10
2022-11-04T19:38:29.535Z,17.97
2022-11-04T19:41:08.240Z,17.83
2022-11-04T19:43:37.188Z,17.91
2022-11-04T19:46:05.598Z,17.90
2022-11-04T19:48:37.640Z,17.86
2022-11-04T19:51:13.563Z,17.78
2022-11-04T19:53:52.007Z,17.69
2022-11-04T19:56:24.126Z,17.72
2022-11-04T19:58:52.272Z,17.51
2022-11-04T20:01:25.112Z,17.50
2022-11-04T20:03:53.818Z,17.61
2022-11-04T20:06:38.575Z,17.47
2022-11-04T20:09:16.716Z,17.57
2022-11-04T20:12:04.518Z,17.55
2022-11-04T20:14:35.471Z,17.50
2022-11-04T20:17:08.883Z,17.53
2022-11-04T20:19:37.280Z,17.45
2022-11-04T20:22:05.365Z,17.34
2022-11-04T20:24:33.914Z,17.26
2022-11-04T20:27:15.713Z,17.28
2022-11-04T20:29:50.955Z,17.23
2022-11-04T20:32:19.147Z,17.25
2022-11-04T20:34:51.382Z,17.22
2022-11-04T20:37:21.583Z,17.12
2022-11-04T20:39:52.190Z,17.14
2022-11-04T20:42:19.979Z,17.02
2022-11-04T20:44:51.040Z,16.99
2022-11-04T20:47:25.323Z,17.21
2022-11-04T20:49:53.334Z,17.18
2022-11-04T20:52:21.155Z,17.01
2022-11-04T20:54:52.035Z,17.13
2022-11-04T20:57:22.318Z,17.10
2022-11-04T20:59:51.543Z,17.09
2022-11-04T21:02:25.140Z,16.96
2022-11-04T21:04:53.593Z,17.05
2022-11-04T21:07:21.167Z,16.95
2022-11-04T21:09:51.422Z,17.02
2022-11-04T21:12:19.698Z,16.96
2022-11-04T21:14:47.507Z,16.99
2022-11-04T21:17:21.830Z,17.12
2022-11-04T21:19:57.197Z,17.06
2022-11-04T21:22:24.997Z,16.92
2022-11-04T21:24:53.112Z,16.99
2022-11-04T21:27:21.002Z,16.99
2022-11-04T21:29:49.307Z,16.90
2022-11-04T21:32:17.711Z,17.05
2022-11-04T21:34:47.466Z,17.06
2022-11-04T21:37:15.381Z,17.02
2022-11-04T21:39:43.400Z,17.12
2022-11-04T21:42:11.546Z,17.06
2022-11-04T21:44:39.495Z,16.91
2022-11-04T21:47:07.941Z,16.87
2022-11-04T21:49:35.810Z,16.95
2022-11-04T21:52:05.103Z,16.76
2022-11-04T21:54:33.276Z,16.58
2022-11-04T21:57:01.122Z,16.46
2022-11-04T21:59:29.160Z,16.52
2022-11-04T22:01:57.375Z,16.49
2022-11-04T22:04:25.336Z,16.40
2022-11-04T22:07:01.889Z,16.40
2022-11-04T22:09:31.948Z,16.41
2022-11-04T22:12:00.023Z,16.46
2022-11-04T22:14:33.383Z,16.42
2022-11-04T22:17:01.988Z,16.42
2022-11-04T22:19:29.354Z,16.42
2022-11-04T22:22:00.709Z,16.40
2022-11-04T22:24:28.609Z,16.48
2022-11-04T22:26:57.364Z,16.38
2022-11-04T22:29:24.636Z,16.45
2022-11-04T22:31:52.057Z,16.41
2022-11-04T22:34:22.944Z,16.28
2022-11-04T22:36:50.787Z,16.36
2022-11-04T22:39:18.457Z,16.41
2022-11-04T22:41:46.691Z,16.37
2022-11-04T22:44:14.302Z,16.14
2022-11-04T22:46:44.007Z,16.17
2022-11-04T22:49:11.985Z,15.97
2022-11-04T22:51:39.205Z,16.00
2022-11-04T22:54:08.844Z,15.96
2022-11-04T22:56:40.162Z,16.01
2022-11-04T22:59:08.100Z,15.93
2022-11-04T23:01:35.550Z,15.90
2022-11-04T23:04:06.348Z,15.89
2022-11-04T23:06:34.079Z,15.88
2022-11-04T23:09:02.494Z,15.88
2022-11-04T23:11:49.501Z,15.70
2022-11-04T23:14:54.842Z,15.62
2022-11-04T23:17:42.513Z,15.52
2022-11-04T23:20:14.032Z,15.48
2022-11-04T23:23:00.402Z,15.52
2022-11-04T23:25:28.227Z,15.49
2022-11-04T23:28:16.498Z,15.36
2022-11-04T23:30:47.418Z,15.41
2022-11-04T23:33:15.984Z,15.47
2022-11-04T23:36:07.520Z,15.44
2022-11-04T23:38:38.133Z,15.44
2022-11-04T23:41:26.241Z,15.34
2022-11-04T23:43:53.705Z,15.33
2022-11-04T23:46:43.467Z,15.32
2022-11-04T23:49:35.614Z,15.25
2022-11-04T23:52:21.665Z,15.30
2022-11-04T23:55:07.434Z,15.23
2022-11-04T23:57:58.075Z,15.19
